createdAt,value
2019-03-17T00:00:29.113Z,2.87
2019-03-17T00:02:56.796Z,2.90
2019-03-17T00:05:24.438Z,3.03
2019-03-17T00:07:52.016Z,3.17
2019-03-17T00:10:19.628Z,3.20
2019-03-17T00:12:47.197Z,2.67
2019-03-17T00:15:14.847Z,2.90
2019-03-17T00:17:42.449Z,2.97
2019-03-17T00:20:10.065Z,3.53
2019-03-17T00:22:37.646Z,3.20
2019-03-17T00:25:09.644Z,2.70
2019-03-17T00:27:34.896Z,3.10
2019-03-17T00:30:03.083Z,3.50
2019-03-17T00:32:30.669Z,4.17
2019-03-17T00:34:58.278Z,2.90
2019-03-17T00:37:25.864Z,3.67
2019-03-17T00:39:55.061Z,3.87
2019-03-17T00:42:22.692Z,3.60
2019-03-17T00:44:50.365Z,4.57
2019-03-17T00:47:17.938Z,4.07
2019-03-17T00:49:45.554Z,3.50
2019-03-17T00:52:13.129Z,3.73
2019-03-17T00:54:40.992Z,3.73
2019-03-17T00:57:08.589Z,2.50
2019-03-17T00:59:36.206Z,3.30
2019-03-17T01:02:03.802Z,2.97
2019-03-17T01:04:31.412Z,3.20
2019-03-17T01:06:58.995Z,3.10
2019-03-17T01:09:26.601Z,3.23
2019-03-17T01:11:54.181Z,2.73
2019-03-17T01:14:21.788Z,3.10
2019-03-17T01:16:49.411Z,4.10
2019-03-17T01:19:17.020Z,3.20
2019-03-17T01:21:44.591Z,3.10
2019-03-17T01:24:12.198Z,3.20
2019-03-17T01:26:39.856Z,2.93
2019-03-17T01:29:07.455Z,3.10
2019-03-17T01:31:35.062Z,2.87
2019-03-17T01:34:02.661Z,3.20
2019-03-17T01:36:30.273Z,2.90
2019-03-17T01:38:57.845Z,3.07
2019-03-17T01:41:25.447Z,4.07
2019-03-17T01:43:53.244Z,4.40
2019-03-17T01:46:20.895Z,5.47
2019-03-17T01:48:48.514Z,4.90
2019-03-17T01:51:16.112Z,4.87
2019-03-17T01:53:43.690Z,4.50
2019-03-17T01:56:11.319Z,4.00
2019-03-17T01:58:38.927Z,4.33
2019-03-17T02:01:06.525Z,5.03
2019-03-17T02:03:34.171Z,3.70
2019-03-17T02:06:01.785Z,3.30
2019-03-17T02:08:29.381Z,3.87
2019-03-17T02:10:57.015Z,4.20
2019-03-17T02:13:24.624Z,3.77
2019-03-17T02:15:52.264Z,5.23
2019-03-17T02:18:19.831Z,4.87
2019-03-17T02:20:47.462Z,4.07
2019-03-17T02:23:15.037Z,3.97
2019-03-17T02:25:44.380Z,3.97
2019-03-17T02:28:11.947Z,3.53
2019-03-17T02:30:39.609Z,3.57
2019-03-17T02:33:07.177Z,3.57
2019-03-17T02:35:39.611Z,3.37
2019-03-17T02:38:04.148Z,3.10
2019-03-17T02:40:31.796Z,3.10
2019-03-17T02:42:59.390Z,3.30
2019-03-17T02:45:26.984Z,2.90
2019-03-17T02:47:54.573Z,3.30
2019-03-17T02:50:22.171Z,3.13
2019-03-17T02:52:49.764Z,2.80
2019-03-17T02:55:17.405Z,3.20
2019-03-17T02:57:45.018Z,3.40
2019-03-17T03:00:12.645Z,3.00
2019-03-17T03:02:40.222Z,3.20
2019-03-17T03:05:07.791Z,3.40
2019-03-17T03:07:35.396Z,3.40
2019-03-17T03:10:03.166Z,3.10
2019-03-17T03:12:30.811Z,3.30
2019-03-17T03:14:58.422Z,3.70
2019-03-17T03:17:26.051Z,3.70
2019-03-17T03:19:53.645Z,3.80
2019-03-17T03:22:21.294Z,3.90
2019-03-17T03:24:48.881Z,4.30
2019-03-17T03:27:16.501Z,4.57
2019-03-17T03:29:44.124Z,4.27
2019-03-17T03:32:11.761Z,4.17
2019-03-17T03:34:39.327Z,4.00
2019-03-17T03:37:06.948Z,3.60
2019-03-17T03:39:34.542Z,4.07
2019-03-17T03:42:02.234Z,4.83
2019-03-17T03:44:29.806Z,4.80
2019-03-17T03:46:57.428Z,5.17
2019-03-17T03:49:25.016Z,4.37
2019-03-17T03:51:52.644Z,4.37
2019-03-17T03:54:23.097Z,3.63
2019-03-17T03:56:50.769Z,3.43
2019-03-17T03:59:18.590Z,3.27
2019-03-17T04:01:46.203Z,4.07
2019-03-17T04:04:13.814Z,3.70
2019-03-17T04:06:41.514Z,3.83
2019-03-17T04:09:09.157Z,4.30
2019-03-17T04:11:37.046Z,4.00
2019-03-17T04:14:06.484Z,4.53
2019-03-17T04:16:34.114Z,3.90
2019-03-17T04:19:01.739Z,4.67
2019-03-17T04:21:32.621Z,4.07
2019-03-17T04:24:00.180Z,3.97
2019-03-17T04:26:27.952Z,4.70
2019-03-17T04:28:55.717Z,4.23
2019-03-17T04:31:25.215Z,4.07
2019-03-17T04:33:52.805Z,3.87
2019-03-17T04:36:20.482Z,4.30
2019-03-17T04:38:48.768Z,4.60
2019-03-17T04:41:17.566Z,4.30
2019-03-17T04:43:45.116Z,5.00
2019-03-17T04:46:12.739Z,7.60
2019-03-17T04:48:40.395Z,7.23
2019-03-17T04:51:08.178Z,6.17
2019-03-17T04:53:36.911Z,6.13
2019-03-17T04:56:05.251Z,5.80
2019-03-17T04:58:35.554Z,7.77
2019-03-17T05:01:03.114Z,6.77
2019-03-17T05:03:30.729Z,5.23
2019-03-17T05:05:58.428Z,4.90
2019-03-17T05:08:26.035Z,4.37
2019-03-17T05:10:53.845Z,3.97
2019-03-17T05:13:22.039Z,4.07
2019-03-17T05:15:49.641Z,4.37
2019-03-17T05:18:17.471Z,4.40
2019-03-17T05:20:45.234Z,4.17
2019-03-17T05:23:12.837Z,5.47
2019-03-17T05:25:40.456Z,4.73
2019-03-17T05:28:08.216Z,5.33
2019-03-17T05:30:35.747Z,4.83
2019-03-17T05:33:04.947Z,5.57
2019-03-17T05:35:32.901Z,5.20
2019-03-17T05:38:00.662Z,5.37
2019-03-17T05:40:28.411Z,5.87
2019-03-17T05:42:56.158Z,6.10
2019-03-17T05:45:23.725Z,6.10
2019-03-17T05:47:51.505Z,5.83
2019-03-17T05:50:19.102Z,6.07
2019-03-17T05:52:46.965Z,6.17
2019-03-17T05:55:14.958Z,6.77
2019-03-17T05:57:43.674Z,7.13
2019-03-17T06:00:11.934Z,7.70
2019-03-17T06:02:41.883Z,7.77
2019-03-17T06:05:10.092Z,8.57
2019-03-17T06:07:38.045Z,9.80
2019-03-17T06:10:06.222Z,8.50
2019-03-17T06:12:33.902Z,7.80
2019-03-17T06:15:01.515Z,10.37
2019-03-17T06:17:29.535Z,9.90
2019-03-17T06:19:57.200Z,9.03
2019-03-17T06:22:24.892Z,8.67
2019-03-17T06:24:52.977Z,8.97
2019-03-17T06:27:20.632Z,9.13
2019-03-17T06:29:48.268Z,11.70
2019-03-17T06:32:16.085Z,11.40
2019-03-17T06:34:43.671Z,10.03
2019-03-17T06:37:11.243Z,12.03
2019-03-17T06:39:38.853Z,12.23
2019-03-17T06:42:06.442Z,11.80
2019-03-17T06:44:34.159Z,11.10
2019-03-17T06:47:01.786Z,10.50
2019-03-17T06:49:29.725Z,9.03
2019-03-17T06:51:57.371Z,8.63
2019-03-17T06:54:25.003Z,8.30
2019-03-17T06:56:52.774Z,7.07
2019-03-17T06:59:20.401Z,7.13
2019-03-17T07:01:48.045Z,6.07
2019-03-17T07:04:15.712Z,5.33
2019-03-17T07:06:43.265Z,5.87
2019-03-17T07:09:10.865Z,7.20
2019-03-17T07:11:38.437Z,6.73
2019-03-17T07:14:06.038Z,5.17
2019-03-17T07:16:33.646Z,4.10
2019-03-17T07:19:01.276Z,4.07
2019-03-17T07:21:28.899Z,4.77
2019-03-17T07:23:56.540Z,4.80
2019-03-17T07:26:29.435Z,2.20
2019-03-17T07:28:57.060Z,1.30
2019-03-17T07:31:24.711Z,1.10
2019-03-17T07:33:52.297Z,1.40
2019-03-17T07:36:19.894Z,1.53
2019-03-17T07:38:47.563Z,1.70
2019-03-17T07:41:15.153Z,1.60
2019-03-17T07:43:42.761Z,1.77
2019-03-17T07:46:10.355Z,1.60
2019-03-17T07:48:37.969Z,1.63
2019-03-17T07:51:05.568Z,1.67
2019-03-17T07:53:33.198Z,1.40
2019-03-17T07:56:00.789Z,1.33
2019-03-17T07:58:28.398Z,1.60
2019-03-17T08:00:56.009Z,1.57
2019-03-17T08:03:23.656Z,1.67
2019-03-17T08:05:51.297Z,1.80
2019-03-17T08:08:18.967Z,1.57
2019-03-17T08:10:46.607Z,1.50
2019-03-17T08:13:14.229Z,1.87
2019-03-17T08:15:41.847Z,1.50
2019-03-17T08:18:09.454Z,1.97
2019-03-17T08:20:37.073Z,1.70
2019-03-17T08:23:04.670Z,1.43
2019-03-17T08:25:32.280Z,1.80
2019-03-17T08:27:59.988Z,1.70
2019-03-17T08:30:27.630Z,1.70
2019-03-17T08:32:55.209Z,1.63
2019-03-17T08:35:22.857Z,1.80
2019-03-17T08:37:50.494Z,1.57
2019-03-17T08:40:18.137Z,1.60
2019-03-17T08:42:45.759Z,2.13
2019-03-17T08:45:13.387Z,1.60
2019-03-17T08:47:41.000Z,1.80
2019-03-17T08:50:09.159Z,1.80
2019-03-17T08:52:36.751Z,1.50
2019-03-17T08:55:04.880Z,2.20
2019-03-17T08:57:32.487Z,3.03
2019-03-17T09:00:00.164Z,2.60
2019-03-17T09:02:28.042Z,2.03
2019-03-17T09:04:55.615Z,2.33
2019-03-17T09:07:23.198Z,2.07
2019-03-17T09:09:50.943Z,2.30
2019-03-17T09:12:22.604Z,2.00
2019-03-17T09:14:50.230Z,1.77
2019-03-17T09:17:17.804Z,2.30
2019-03-17T09:19:45.412Z,2.70
2019-03-17T09:22:13.008Z,3.80
2019-03-17T09:24:40.701Z,3.20
2019-03-17T09:27:08.214Z,3.87
2019-03-17T09:29:35.839Z,5.03
2019-03-17T09:32:03.477Z,6.50
2019-03-17T09:34:31.011Z,7.17
2019-03-17T09:36:58.654Z,6.57
2019-03-17T09:39:26.273Z,6.23
2019-03-17T09:41:53.892Z,5.73
2019-03-17T09:44:22.251Z,5.43
2019-03-17T09:46:49.899Z,6.37
2019-03-17T09:49:17.499Z,6.30
2019-03-17T09:51:45.130Z,7.97
2019-03-17T09:54:12.710Z,8.67
2019-03-17T09:56:40.320Z,8.47
2019-03-17T09:59:07.951Z,8.10
2019-03-17T10:01:35.609Z,8.13
2019-03-17T10:04:03.330Z,7.87
2019-03-17T10:06:30.902Z,8.00
2019-03-17T10:09:00.135Z,7.97
2019-03-17T10:11:27.986Z,5.10
2019-03-17T10:13:55.871Z,4.97
2019-03-17T10:16:25.976Z,5.63
2019-03-17T10:18:53.565Z,6.20
2019-03-17T10:21:21.180Z,7.63
2019-03-17T10:23:48.826Z,7.57
2019-03-17T10:26:16.516Z,7.87
2019-03-17T10:28:44.113Z,7.87
2019-03-17T10:31:11.744Z,7.93
2019-03-17T10:33:39.394Z,7.60
2019-03-17T10:36:06.961Z,8.87
2019-03-17T10:38:34.591Z,8.53
2019-03-17T10:41:02.319Z,8.13
2019-03-17T10:43:29.864Z,8.47
2019-03-17T10:45:57.566Z,8.27
2019-03-17T10:48:25.152Z,9.30
2019-03-17T10:50:52.775Z,7.80
2019-03-17T10:53:20.390Z,7.07
2019-03-17T10:55:47.971Z,5.97
2019-03-17T10:58:15.553Z,5.47
2019-03-17T11:00:43.132Z,4.30
2019-03-17T11:03:10.747Z,5.97
2019-03-17T11:05:38.454Z,5.90
2019-03-17T11:08:06.110Z,9.33
2019-03-17T11:10:33.660Z,8.67
2019-03-17T11:13:01.328Z,3.30
2019-03-17T11:15:28.909Z,2.70
2019-03-17T11:17:56.521Z,3.00
2019-03-17T11:20:24.172Z,2.80
2019-03-17T11:22:51.776Z,2.30
2019-03-17T11:25:19.651Z,2.80
2019-03-17T11:27:47.263Z,2.30
2019-03-17T11:30:14.991Z,2.20
2019-03-17T11:32:42.599Z,2.10
2019-03-17T11:35:10.307Z,1.70
2019-03-17T11:37:37.974Z,2.10
2019-03-17T11:40:06.240Z,2.20
2019-03-17T11:42:33.854Z,1.63
2019-03-17T11:45:01.465Z,2.10
2019-03-17T11:47:29.089Z,1.83
2019-03-17T11:49:56.727Z,1.93
2019-03-17T11:52:24.342Z,2.17
2019-03-17T11:54:51.924Z,2.60
2019-03-17T11:57:19.535Z,2.37
2019-03-17T11:59:47.140Z,1.93
2019-03-17T12:02:26.046Z,1.60
2019-03-17T12:04:44.153Z,1.53
2019-03-17T12:07:11.787Z,1.30
2019-03-17T12:09:49.547Z,1.40
2019-03-17T12:12:08.764Z,1.27
2019-03-17T12:14:36.340Z,1.00
2019-03-17T12:17:03.976Z,1.00
2019-03-17T12:19:32.808Z,1.17
2019-03-17T12:22:08.990Z,1.23
2019-03-17T12:24:30.085Z,1.20
2019-03-17T12:26:58.946Z,1.40
2019-03-17T12:29:26.535Z,1.40
2019-03-17T12:31:54.191Z,1.33
2019-03-17T12:34:28.233Z,1.27
2019-03-17T12:36:51.238Z,1.10
2019-03-17T12:39:18.855Z,1.10
2019-03-17T12:41:46.453Z,1.20
2019-03-17T12:44:14.095Z,1.00
2019-03-17T12:46:41.692Z,1.43
2019-03-17T12:49:09.341Z,1.13
2019-03-17T12:51:36.941Z,1.23
2019-03-17T12:54:04.614Z,1.67
2019-03-17T12:56:32.218Z,1.20
2019-03-17T12:58:59.864Z,1.30
2019-03-17T13:01:27.457Z,1.43
2019-03-17T13:03:55.060Z,1.20
2019-03-17T13:06:22.640Z,1.67
2019-03-17T13:08:50.258Z,1.37
2019-03-17T13:11:17.848Z,1.20
2019-03-17T13:13:45.495Z,1.20
2019-03-17T13:16:13.112Z,1.23
2019-03-17T13:18:40.718Z,1.30
2019-03-17T13:21:08.323Z,1.50
2019-03-17T13:23:35.986Z,1.70
2019-03-17T13:26:03.595Z,1.37
2019-03-17T13:28:31.235Z,1.33
2019-03-17T13:30:58.885Z,1.17
2019-03-17T13:33:26.573Z,1.30
2019-03-17T13:35:54.216Z,1.10
2019-03-17T13:38:21.870Z,2.77
2019-03-17T13:40:49.467Z,4.10
2019-03-17T13:43:17.100Z,4.17
2019-03-17T13:45:44.674Z,2.03
2019-03-17T13:48:12.319Z,2.87
2019-03-17T13:50:39.895Z,1.90
2019-03-17T13:53:07.472Z,1.80
2019-03-17T13:55:35.086Z,1.60
2019-03-17T13:58:02.770Z,1.47
2019-03-17T14:00:30.435Z,1.73
2019-03-17T14:02:58.146Z,1.97
2019-03-17T14:05:25.829Z,2.07
2019-03-17T14:07:53.427Z,2.20
2019-03-17T14:10:21.071Z,3.10
2019-03-17T14:12:48.727Z,2.60
2019-03-17T14:15:16.411Z,2.43
2019-03-17T14:17:44.126Z,2.03
2019-03-17T14:20:12.820Z,1.50
2019-03-17T14:22:40.438Z,1.30
2019-03-17T14:25:11.622Z,1.17
2019-03-17T14:27:39.206Z,1.37
2019-03-17T14:30:09.000Z,1.17
2019-03-17T14:32:36.578Z,1.03
2019-03-17T14:35:04.856Z,1.50
2019-03-17T14:37:32.459Z,2.30
2019-03-17T14:40:00.194Z,3.20
2019-03-17T14:42:27.985Z,3.17
2019-03-17T14:44:55.602Z,2.20
2019-03-17T14:47:23.260Z,1.93
2019-03-17T14:49:51.042Z,1.43
2019-03-17T14:52:18.638Z,0.80
2019-03-17T14:54:46.270Z,1.13
2019-03-17T14:57:13.861Z,1.40
2019-03-17T14:59:41.483Z,1.20
2019-03-17T15:02:09.090Z,1.20
2019-03-17T15:04:36.736Z,0.90
2019-03-17T15:07:04.319Z,0.93
2019-03-17T15:09:31.971Z,1.30
2019-03-17T15:11:59.590Z,1.10
2019-03-17T15:14:27.246Z,1.33
2019-03-17T15:16:54.855Z,1.33
2019-03-17T15:19:25.506Z,1.20
2019-03-17T15:21:53.019Z,1.50
2019-03-17T15:24:20.643Z,1.10
2019-03-17T15:26:48.182Z,1.50
2019-03-17T15:29:15.762Z,1.50
2019-03-17T15:31:43.369Z,1.20
2019-03-17T15:34:10.982Z,1.20
2019-03-17T15:36:38.607Z,1.10
2019-03-17T15:39:06.347Z,1.13
2019-03-17T15:41:33.977Z,1.50
2019-03-17T15:44:02.496Z,1.30
2019-03-17T15:46:30.125Z,1.30
2019-03-17T15:48:57.735Z,1.70
2019-03-17T15:51:25.362Z,1.27
2019-03-17T15:53:52.987Z,1.30
2019-03-17T15:56:20.660Z,1.53
2019-03-17T15:58:48.256Z,1.80
2019-03-17T16:01:15.902Z,1.80
2019-03-17T16:03:43.485Z,1.67
2019-03-17T16:06:11.142Z,1.80
2019-03-17T16:08:38.806Z,2.00
2019-03-17T16:11:06.368Z,2.90
2019-03-17T16:13:33.974Z,2.40
2019-03-17T16:16:01.608Z,1.70
2019-03-17T16:18:29.208Z,1.10
2019-03-17T16:20:56.827Z,1.10
2019-03-17T16:23:24.422Z,0.97
2019-03-17T16:25:52.060Z,1.10
2019-03-17T16:28:19.628Z,1.00
2019-03-17T16:30:47.320Z,1.60
2019-03-17T16:33:14.892Z,1.37
2019-03-17T16:35:42.507Z,1.20
2019-03-17T16:38:10.076Z,1.53
2019-03-17T16:40:37.696Z,1.10
2019-03-17T16:43:05.309Z,1.40
2019-03-17T16:45:32.908Z,1.30
2019-03-17T16:48:00.503Z,1.30
2019-03-17T16:50:28.119Z,1.73
2019-03-17T16:52:55.710Z,1.77
2019-03-17T16:55:23.317Z,1.43
2019-03-17T16:57:50.927Z,1.87
2019-03-17T17:00:19.352Z,1.75
2019-03-17T17:02:47.290Z,1.50
2019-03-17T17:05:15.000Z,1.57
2019-03-17T17:07:42.605Z,1.80
2019-03-17T17:10:12.123Z,1.73
2019-03-17T17:15:19.556Z,1.73
2019-03-17T17:17:47.223Z,1.97
2019-03-17T17:20:16.929Z,2.37
2019-03-17T17:22:44.562Z,2.43
2019-03-17T17:25:12.174Z,1.97
2019-03-17T17:27:39.764Z,1.90
2019-03-17T17:30:08.365Z,1.70
2019-03-17T17:32:35.998Z,2.27
2019-03-17T17:35:04.159Z,2.10
2019-03-17T17:37:31.715Z,2.00
2019-03-17T17:39:59.351Z,1.90
2019-03-17T17:42:26.962Z,2.40
2019-03-17T17:44:54.575Z,2.30
2019-03-17T17:47:22.178Z,2.67
2019-03-17T17:49:49.781Z,3.10
2019-03-17T17:52:17.514Z,3.00
2019-03-17T17:54:45.091Z,2.90
2019-03-17T17:57:12.838Z,2.43
2019-03-17T17:59:40.463Z,2.40
2019-03-17T18:02:08.073Z,2.30
2019-03-17T18:04:35.694Z,1.80
2019-03-17T18:07:03.378Z,2.50
2019-03-17T18:09:30.982Z,2.30
2019-03-17T18:11:58.681Z,1.77
2019-03-17T18:14:26.230Z,2.27
2019-03-17T18:16:53.940Z,2.20
2019-03-17T18:19:21.769Z,2.50
2019-03-17T18:21:49.395Z,2.13
2019-03-17T18:24:17.039Z,2.13
2019-03-17T18:26:44.695Z,2.43
2019-03-17T18:29:12.354Z,3.57
2019-03-17T18:31:39.984Z,3.23
2019-03-17T18:34:07.609Z,3.23
2019-03-17T18:36:35.230Z,2.73
2019-03-17T18:39:04.427Z,2.40
2019-03-17T18:41:32.052Z,2.30
2019-03-17T18:43:59.648Z,2.47
2019-03-17T18:46:27.230Z,2.17
2019-03-17T18:48:54.794Z,2.27
2019-03-17T18:51:24.896Z,2.10
2019-03-17T18:53:51.965Z,2.20
2019-03-17T18:56:19.569Z,2.47
2019-03-17T18:58:47.183Z,2.33
2019-03-17T19:01:14.832Z,1.83
2019-03-17T19:03:42.407Z,1.90
2019-03-17T19:06:10.064Z,2.03
2019-03-17T19:08:37.788Z,2.00
2019-03-17T19:11:05.482Z,1.70
2019-03-17T19:13:33.123Z,2.37
2019-03-17T19:16:00.724Z,2.10
2019-03-17T19:18:28.340Z,1.80
2019-03-17T19:21:02.976Z,1.80
2019-03-17T19:23:30.666Z,1.70
2019-03-17T19:25:58.279Z,1.70
2019-03-17T19:28:25.891Z,1.80
2019-03-17T19:30:53.513Z,1.40
2019-03-17T19:33:21.253Z,1.50
2019-03-17T19:35:48.869Z,1.50
2019-03-17T19:38:16.537Z,1.40
2019-03-17T19:40:45.588Z,1.30
2019-03-17T19:43:14.058Z,1.53
2019-03-17T19:45:41.679Z,1.67
2019-03-17T19:48:09.465Z,1.50
2019-03-17T19:50:37.055Z,1.50
2019-03-17T19:53:04.699Z,1.70
2019-03-17T19:55:32.378Z,1.47
2019-03-17T19:58:00.005Z,1.80
2019-03-17T20:00:28.021Z,1.80
2019-03-17T20:02:55.686Z,1.80
2019-03-17T20:05:23.323Z,1.63
2019-03-17T20:07:50.953Z,1.70
2019-03-17T20:10:20.210Z,2.03
2019-03-17T20:12:47.858Z,2.63
2019-03-17T20:15:15.447Z,3.37
2019-03-17T20:17:43.091Z,3.23
2019-03-17T20:20:11.029Z,2.90
2019-03-17T20:22:38.657Z,3.53
2019-03-17T20:25:06.465Z,3.60
2019-03-17T20:27:35.229Z,3.53
2019-03-17T20:30:03.334Z,4.27
2019-03-17T20:32:30.910Z,3.80
2019-03-17T20:34:58.565Z,3.60
2019-03-17T20:37:26.203Z,2.87
2019-03-17T20:39:54.185Z,2.30
2019-03-17T20:42:21.914Z,2.00
2019-03-17T20:44:49.698Z,1.77
2019-03-17T20:47:27.428Z,2.03
2019-03-17T20:49:55.008Z,2.10
2019-03-17T20:52:22.574Z,1.60
2019-03-17T20:54:50.638Z,1.60
2019-03-17T20:57:19.838Z,1.87
2019-03-17T20:59:47.476Z,1.70
2019-03-17T21:02:15.093Z,1.63
2019-03-17T21:04:42.695Z,1.50
2019-03-17T21:07:10.331Z,1.80
2019-03-17T21:09:37.941Z,1.80
2019-03-17T21:12:05.547Z,2.00
2019-03-17T21:14:33.219Z,1.70
2019-03-17T21:17:00.824Z,1.60
2019-03-17T21:19:28.478Z,2.17
2019-03-17T21:21:56.076Z,2.40
2019-03-17T21:24:23.728Z,2.13
2019-03-17T21:26:51.305Z,2.90
2019-03-17T21:29:18.974Z,2.40
2019-03-17T21:31:46.582Z,2.10
2019-03-17T21:34:14.214Z,2.03
2019-03-17T21:36:41.791Z,1.93
2019-03-17T21:39:09.412Z,1.90
2019-03-17T21:41:36.993Z,1.93
2019-03-17T21:44:04.722Z,2.03
2019-03-17T21:46:32.380Z,2.03
2019-03-17T21:48:59.970Z,2.00
2019-03-17T21:51:29.175Z,2.07
2019-03-17T21:53:56.841Z,2.80
2019-03-17T21:56:24.458Z,2.73
2019-03-17T21:58:52.041Z,3.03
2019-03-17T22:01:19.657Z,3.27
2019-03-17T22:03:47.291Z,3.43
2019-03-17T22:06:14.903Z,3.87
2019-03-17T22:08:42.513Z,3.77
2019-03-17T22:11:10.156Z,3.83
2019-03-17T22:13:37.746Z,3.50
2019-03-17T22:16:05.368Z,3.37
2019-03-17T22:18:32.977Z,4.33
2019-03-17T22:21:00.606Z,4.00
2019-03-17T22:23:28.218Z,4.07
2019-03-17T22:25:55.813Z,3.60
2019-03-17T22:28:23.423Z,3.30
2019-03-17T22:30:51.717Z,3.37
2019-03-17T22:33:26.802Z,3.00
2019-03-17T22:35:55.033Z,3.50
2019-03-17T22:38:23.481Z,3.50
2019-03-17T22:40:51.097Z,3.60
2019-03-17T22:43:18.686Z,3.40
2019-03-17T22:45:46.331Z,3.03
2019-03-17T22:48:13.916Z,2.70
2019-03-17T22:50:41.520Z,2.77
2019-03-17T22:53:09.120Z,2.70
2019-03-17T22:55:36.725Z,2.50
2019-03-17T22:58:04.347Z,2.30
2019-03-17T23:00:45.029Z,2.53
2019-03-17T23:03:12.690Z,3.43
2019-03-17T23:05:40.362Z,3.03
2019-03-17T23:08:07.928Z,3.43
2019-03-17T23:10:35.594Z,4.20
2019-03-17T23:13:03.204Z,4.70
2019-03-17T23:15:35.410Z,6.73
2019-03-17T23:18:01.865Z,6.10
2019-03-17T23:20:29.555Z,6.30
2019-03-17T23:22:57.146Z,4.77
2019-03-17T23:25:24.762Z,4.90
2019-03-17T23:27:52.387Z,4.63
2019-03-17T23:30:19.996Z,3.80
2019-03-17T23:32:49.267Z,4.03
2019-03-17T23:35:17.318Z,3.50
2019-03-17T23:37:44.956Z,3.50
2019-03-17T23:40:12.604Z,3.03
2019-03-17T23:42:40.191Z,3.03
2019-03-17T23:45:08.197Z,2.90
2019-03-17T23:47:35.828Z,3.27
2019-03-17T23:50:03.801Z,2.60
2019-03-17T23:52:31.401Z,2.77
2019-03-17T23:54:59.019Z,2.60
2019-03-17T23:57:26.606Z,2.77
2019-03-17T23:59:54.186Z,2.57
